sensor_id;sensor_type;location;lat;lon;timestamp;P1;durP1;ratioP1;P2;durP2;ratioP2
20458;SDS011;10388;52.314;7.938;2023-08-07T00:02:21;7.73;;;3.20;;
20458;SDS011;10388;52.314;7.938;2023-08-07T03:31:09;7.63;;;6.13;;
20458;SDS011;10388;52.314;7.938;2023-08-07T03:33:40;9.43;;;6.23;;
20458;SDS011;10388;52.314;7.938;2023-08-07T03:36:10;9.20;;;6.20;;
20458;SDS011;10388;52.314;7.938;2023-08-07T03:38:41;10.67;;;6.77;;
20458;SDS011;10388;52.314;7.938;2023-08-07T03:41:12;11.50;;;6.10;;
20458;SDS011;10388;52.314;7.938;2023-08-07T03:43:42;11.93;;;6.30;;
20458;SDS011;10388;52.314;7.938;2023-08-07T03:46:13;7.50;;;6.13;;
20458;SDS011;10388;52.314;7.938;2023-08-07T03:48:43;9.00;;;6.13;;
20458;SDS011;10388;52.314;7.938;2023-08-07T03:51:14;7.27;;;6.37;;
20458;SDS011;10388;52.314;7.938;2023-08-07T03:53:48;7.40;;;6.07;;
20458;SDS011;10388;52.314;7.938;2023-08-07T03:56:19;7.60;;;5.50;;
20458;SDS011;10388;52.314;7.938;2023-08-07T03:58:50;8.20;;;5.80;;
20458;SDS011;10388;52.314;7.938;2023-08-07T04:01:20;8.00;;;5.53;;
20458;SDS011;10388;52.314;7.938;2023-08-07T04:03:51;6.87;;;5.17;;
20458;SDS011;10388;52.314;7.938;2023-08-07T04:06:21;5.83;;;4.93;;
20458;SDS011;10388;52.314;7.938;2023-08-07T04:08:52;9.07;;;5.63;;
20458;SDS011;10388;52.314;7.938;2023-08-07T04:11:22;8.80;;;5.17;;
20458;SDS011;10388;52.314;7.938;2023-08-07T04:13:53;7.80;;;4.50;;
20458;SDS011;10388;52.314;7.938;2023-08-07T04:16:23;7.53;;;4.80;;
20458;SDS011;10388;52.314;7.938;2023-08-07T04:18:54;6.17;;;4.30;;
20458;SDS011;10388;52.314;7.938;2023-08-07T04:21:25;6.37;;;4.40;;
20458;SDS011;10388;52.314;7.938;2023-08-07T04:23:55;6.43;;;4.50;;
20458;SDS011;10388;52.314;7.938;2023-08-07T04:26:26;8.43;;;4.90;;
20458;SDS011;10388;52.314;7.938;2023-08-07T04:28:57;5.83;;;4.50;;
20458;SDS011;10388;52.314;7.938;2023-08-07T04:31:27;6.57;;;4.50;;
20458;SDS011;10388;52.314;7.938;2023-08-07T04:33:59;4.73;;;4.23;;
20458;SDS011;10388;52.314;7.938;2023-08-07T04:36:30;5.67;;;3.97;;
20458;SDS011;10388;52.314;7.938;2023-08-07T04:39:00;8.20;;;4.27;;
20458;SDS011;10388;52.314;7.938;2023-08-07T04:41:31;7.53;;;4.43;;
20458;SDS011;10388;52.314;7.938;2023-08-07T04:44:01;7.50;;;4.30;;
20458;SDS011;10388;52.314;7.938;2023-08-07T04:46:32;12.00;;;4.50;;
20458;SDS011;10388;52.314;7.938;2023-08-07T04:49:03;8.60;;;3.90;;
20458;SDS011;10388;52.314;7.938;2023-08-07T04:51:34;8.60;;;3.77;;
20458;SDS011;10388;52.314;7.938;2023-08-07T04:54:04;9.57;;;3.97;;
20458;SDS011;10388;52.314;7.938;2023-08-07T04:56:35;7.70;;;4.17;;
20458;SDS011;10388;52.314;7.938;2023-08-07T04:59:05;7.03;;;3.63;;
20458;SDS011;10388;52.314;7.938;2023-08-07T05:01:36;5.87;;;3.43;;
20458;SDS011;10388;52.314;7.938;2023-08-07T05:04:08;7.87;;;4.20;;
20458;SDS011;10388;52.314;7.938;2023-08-07T05:06:38;7.03;;;3.50;;
20458;SDS011;10388;52.314;7.938;2023-08-07T05:09:09;8.87;;;3.53;;
20458;SDS011;10388;52.314;7.938;2023-08-07T05:11:39;5.60;;;3.67;;
20458;SDS011;10388;52.314;7.938;2023-08-07T05:14:10;6.83;;;3.07;;
20458;SDS011;10388;52.314;7.938;2023-08-07T05:16:41;7.23;;;3.00;;
20458;SDS011;10388;52.314;7.938;2023-08-07T05:19:11;4.23;;;2.60;;
20458;SDS011;10388;52.314;7.938;2023-08-07T05:21:42;6.03;;;3.00;;
20458;SDS011;10388;52.314;7.938;2023-08-07T05:24:12;8.30;;;2.73;;
20458;SDS011;10388;52.314;7.938;2023-08-07T05:26:43;5.50;;;2.47;;
20458;SDS011;10388;52.314;7.938;2023-08-07T05:29:13;5.83;;;2.70;;
20458;SDS011;10388;52.314;7.938;2023-08-07T05:31:44;6.30;;;2.87;;
20458;SDS011;10388;52.314;7.938;2023-08-07T05:34:14;8.07;;;2.90;;
20458;SDS011;10388;52.314;7.938;2023-08-07T05:36:45;7.53;;;2.73;;
20458;SDS011;10388;52.314;7.938;2023-08-07T05:39:15;6.63;;;2.63;;
20458;SDS011;10388;52.314;7.938;2023-08-07T05:41:46;5.10;;;2.60;;
20458;SDS011;10388;52.314;7.938;2023-08-07T05:44:16;4.07;;;2.40;;
20458;SDS011;10388;52.314;7.938;2023-08-07T05:46:47;5.87;;;2.30;;
20458;SDS011;10388;52.314;7.938;2023-08-07T05:49:17;5.60;;;2.40;;
20458;SDS011;10388;52.314;7.938;2023-08-07T05:51:48;5.37;;;2.60;;
20458;SDS011;10388;52.314;7.938;2023-08-07T05:54:19;8.93;;;2.57;;
20458;SDS011;10388;52.314;7.938;2023-08-07T05:56:49;4.63;;;2.27;;
20458;SDS011;10388;52.314;7.938;2023-08-07T05:59:20;6.43;;;2.63;;
20458;SDS011;10388;52.314;7.938;2023-08-07T06:01:51;5.70;;;2.70;;
20458;SDS011;10388;52.314;7.938;2023-08-07T06:04:21;5.90;;;2.30;;
20458;SDS011;10388;52.314;7.938;2023-08-07T06:06:52;5.50;;;2.07;;
20458;SDS011;10388;52.314;7.938;2023-08-07T06:09:22;7.33;;;2.97;;
20458;SDS011;10388;52.314;7.938;2023-08-07T06:11:53;3.17;;;2.10;;
20458;SDS011;10388;52.314;7.938;2023-08-07T06:14:23;5.83;;;2.47;;
20458;SDS011;10388;52.314;7.938;2023-08-07T06:16:55;10.10;;;3.10;;
20458;SDS011;10388;52.314;7.938;2023-08-07T06:19:27;4.07;;;2.57;;
20458;SDS011;10388;52.314;7.938;2023-08-07T06:21:58;6.40;;;2.50;;
20458;SDS011;10388;52.314;7.938;2023-08-07T06:24:29;8.83;;;3.00;;
20458;SDS011;10388;52.314;7.938;2023-08-07T06:26:59;6.73;;;3.00;;
20458;SDS011;10388;52.314;7.938;2023-08-07T06:29:32;7.83;;;2.87;;
20458;SDS011;10388;52.314;7.938;2023-08-07T06:32:02;7.63;;;2.50;;
20458;SDS011;10388;52.314;7.938;2023-08-07T06:34:35;6.63;;;2.77;;
20458;SDS011;10388;52.314;7.938;2023-08-07T06:37:07;10.87;;;2.77;;
20458;SDS011;10388;52.314;7.938;2023-08-07T06:39:38;7.73;;;2.40;;
20458;SDS011;10388;52.314;7.938;2023-08-07T06:42:08;6.27;;;2.40;;
20458;SDS011;10388;52.314;7.938;2023-08-07T06:44:39;6.43;;;2.63;;
20458;SDS011;10388;52.314;7.938;2023-08-07T06:47:09;6.43;;;2.57;;
20458;SDS011;10388;52.314;7.938;2023-08-07T06:49:40;6.50;;;2.67;;
20458;SDS011;10388;52.314;7.938;2023-08-07T06:52:10;4.80;;;2.90;;
20458;SDS011;10388;52.314;7.938;2023-08-07T06:54:41;7.73;;;3.00;;
20458;SDS011;10388;52.314;7.938;2023-08-07T06:57:11;4.53;;;2.60;;
20458;SDS011;10388;52.314;7.938;2023-08-07T06:59:42;6.97;;;3.00;;
20458;SDS011;10388;52.314;7.938;2023-08-07T07:02:13;7.40;;;2.73;;
20458;SDS011;10388;52.314;7.938;2023-08-07T07:04:43;6.77;;;2.77;;
20458;SDS011;10388;52.314;7.938;2023-08-07T07:07:16;9.27;;;2.73;;
20458;SDS011;10388;52.314;7.938;2023-08-07T07:09:47;4.60;;;3.03;;
20458;SDS011;10388;52.314;7.938;2023-08-07T07:12:17;6.07;;;2.80;;
20458;SDS011;10388;52.314;7.938;2023-08-07T07:14:48;4.93;;;2.33;;
20458;SDS011;10388;52.314;7.938;2023-08-07T07:17:18;4.43;;;2.23;;
20458;SDS011;10388;52.314;7.938;2023-08-07T07:19:49;3.47;;;2.30;;
20458;SDS011;10388;52.314;7.938;2023-08-07T07:22:20;7.00;;;3.00;;
20458;SDS011;10388;52.314;7.938;2023-08-07T07:24:50;4.03;;;2.70;;
20458;SDS011;10388;52.314;7.938;2023-08-07T07:27:21;5.23;;;3.03;;
20458;SDS011;10388;52.314;7.938;2023-08-07T07:29:52;5.77;;;3.20;;
20458;SDS011;10388;52.314;7.938;2023-08-07T07:32:22;4.93;;;3.03;;
20458;SDS011;10388;52.314;7.938;2023-08-07T07:34:54;8.37;;;3.33;;
20458;SDS011;10388;52.314;7.938;2023-08-07T07:37:24;4.80;;;2.90;;
20458;SDS011;10388;52.314;7.938;2023-08-07T07:39:55;6.40;;;3.17;;
20458;SDS011;10388;52.314;7.938;2023-08-07T07:42:25;4.23;;;2.60;;
20458;SDS011;10388;52.314;7.938;2023-08-07T07:44:56;6.83;;;2.77;;
20458;SDS011;10388;52.314;7.938;2023-08-07T07:47:26;5.13;;;2.40;;
20458;SDS011;10388;52.314;7.938;2023-08-07T07:50:04;5.17;;;2.10;;
20458;SDS011;10388;52.314;7.938;2023-08-07T07:52:36;5.17;;;2.50;;
20458;SDS011;10388;52.314;7.938;2023-08-07T07:55:07;8.57;;;3.00;;
20458;SDS011;10388;52.314;7.938;2023-08-07T07:57:39;5.10;;;2.57;;
20458;SDS011;10388;52.314;7.938;2023-08-07T08:00:11;5.57;;;2.97;;
20458;SDS011;10388;52.314;7.938;2023-08-07T08:02:43;6.07;;;2.27;;
20458;SDS011;10388;52.314;7.938;2023-08-07T08:05:13;4.40;;;2.53;;
20458;SDS011;10388;52.314;7.938;2023-08-07T08:07:45;7.63;;;2.63;;
20458;SDS011;10388;52.314;7.938;2023-08-07T08:10:16;8.97;;;2.37;;
20458;SDS011;10388;52.314;7.938;2023-08-07T08:12:46;5.03;;;2.47;;
20458;SDS011;10388;52.314;7.938;2023-08-07T08:15:17;4.13;;;2.20;;
20458;SDS011;10388;52.314;7.938;2023-08-07T08:17:48;5.27;;;2.37;;
20458;SDS011;10388;52.314;7.938;2023-08-07T08:20:18;6.40;;;2.40;;
20458;SDS011;10388;52.314;7.938;2023-08-07T08:22:49;4.87;;;1.93;;
20458;SDS011;10388;52.314;7.938;2023-08-07T08:25:19;5.80;;;2.70;;
20458;SDS011;10388;52.314;7.938;2023-08-07T08:27:50;7.20;;;2.70;;
20458;SDS011;10388;52.314;7.938;2023-08-07T08:30:21;7.43;;;2.93;;
20458;SDS011;10388;52.314;7.938;2023-08-07T08:32:51;4.57;;;1.97;;
20458;SDS011;10388;52.314;7.938;2023-08-07T08:35:22;6.60;;;2.03;;
20458;SDS011;10388;52.314;7.938;2023-08-07T08:37:52;5.63;;;2.20;;
20458;SDS011;10388;52.314;7.938;2023-08-07T08:40:23;3.63;;;1.83;;
20458;SDS011;10388;52.314;7.938;2023-08-07T08:42:54;7.03;;;2.30;;
20458;SDS011;10388;52.314;7.938;2023-08-07T08:45:27;4.87;;;1.80;;
20458;SDS011;10388;52.314;7.938;2023-08-07T08:48:02;4.67;;;1.87;;
20458;SDS011;10388;52.314;7.938;2023-08-07T08:50:34;5.33;;;2.13;;
20458;SDS011;10388;52.314;7.938;2023-08-07T08:53:05;4.90;;;2.20;;
20458;SDS011;10388;52.314;7.938;2023-08-07T08:55:37;6.47;;;1.73;;
20458;SDS011;10388;52.314;7.938;2023-08-07T08:58:13;3.57;;;1.80;;
20458;SDS011;10388;52.314;7.938;2023-08-07T09:00:46;5.97;;;2.17;;
20458;SDS011;10388;52.314;7.938;2023-08-07T09:03:18;7.30;;;1.87;;
20458;SDS011;10388;52.314;7.938;2023-08-07T09:05:49;4.27;;;1.90;;
20458;SDS011;10388;52.314;7.938;2023-08-07T09:08:22;4.70;;;1.67;;
20458;SDS011;10388;52.314;7.938;2023-08-07T09:10:56;5.40;;;1.80;;
20458;SDS011;10388;52.314;7.938;2023-08-07T09:13:27;3.97;;;1.53;;
20458;SDS011;10388;52.314;7.938;2023-08-07T09:15:58;3.83;;;1.63;;
20458;SDS011;10388;52.314;7.938;2023-08-07T09:18:31;2.87;;;1.60;;
20458;SDS011;10388;52.314;7.938;2023-08-07T09:21:02;4.10;;;2.00;;
20458;SDS011;10388;52.314;7.938;2023-08-07T09:23:33;7.30;;;1.83;;
20458;SDS011;10388;52.314;7.938;2023-08-07T09:26:03;4.30;;;1.70;;
20458;SDS011;10388;52.314;7.938;2023-08-07T09:28:35;4.00;;;1.63;;
20458;SDS011;10388;52.314;7.938;2023-08-07T09:31:06;5.17;;;1.30;;
20458;SDS011;10388;52.314;7.938;2023-08-07T09:33:38;3.40;;;1.60;;
20458;SDS011;10388;52.314;7.938;2023-08-07T09:36:09;3.83;;;1.57;;
20458;SDS011;10388;52.314;7.938;2023-08-07T09:38:41;2.03;;;1.30;;
20458;SDS011;10388;52.314;7.938;2023-08-07T09:41:12;3.20;;;1.50;;
20458;SDS011;10388;52.314;7.938;2023-08-07T09:43:42;2.10;;;1.00;;
20458;SDS011;10388;52.314;7.938;2023-08-07T09:46:13;2.20;;;1.30;;
20458;SDS011;10388;52.314;7.938;2023-08-07T09:48:44;2.97;;;1.23;;
20458;SDS011;10388;52.314;7.938;2023-08-07T09:51:14;2.23;;;1.60;;
20458;SDS011;10388;52.314;7.938;2023-08-07T09:53:46;4.33;;;1.40;;
20458;SDS011;10388;52.314;7.938;2023-08-07T09:56:17;1.97;;;0.90;;
20458;SDS011;10388;52.314;7.938;2023-08-07T09:58:47;4.10;;;1.20;;
20458;SDS011;10388;52.314;7.938;2023-08-07T10:01:19;3.10;;;1.20;;
20458;SDS011;10388;52.314;7.938;2023-08-07T10:03:49;1.93;;;0.93;;
20458;SDS011;10388;52.314;7.938;2023-08-07T10:06:20;2.97;;;1.30;;
20458;SDS011;10388;52.314;7.938;2023-08-07T10:08:51;1.67;;;1.00;;
20458;SDS011;10388;52.314;7.938;2023-08-07T10:11:22;1.47;;;1.10;;
20458;SDS011;10388;52.314;7.938;2023-08-07T10:13:53;2.27;;;1.10;;
20458;SDS011;10388;52.314;7.938;2023-08-07T10:16:27;2.60;;;1.13;;
20458;SDS011;10388;52.314;7.938;2023-08-07T10:18:58;3.50;;;1.43;;
20458;SDS011;10388;52.314;7.938;2023-08-07T10:21:28;4.67;;;1.40;;
20458;SDS011;10388;52.314;7.938;2023-08-07T10:23:59;2.93;;;1.40;;
20458;SDS011;10388;52.314;7.938;2023-08-07T10:26:32;2.93;;;1.23;;
20458;SDS011;10388;52.314;7.938;2023-08-07T10:29:06;3.53;;;1.30;;
20458;SDS011;10388;52.314;7.938;2023-08-07T10:31:39;5.70;;;2.00;;
20458;SDS011;10388;52.314;7.938;2023-08-07T10:34:12;6.13;;;1.90;;
20458;SDS011;10388;52.314;7.938;2023-08-07T10:36:43;2.77;;;1.80;;
20458;SDS011;10388;52.314;7.938;2023-08-07T10:39:15;3.50;;;1.87;;
20458;SDS011;10388;52.314;7.938;2023-08-07T10:41:46;4.80;;;1.90;;
20458;SDS011;10388;52.314;7.938;2023-08-07T10:44:23;4.37;;;1.97;;
20458;SDS011;10388;52.314;7.938;2023-08-07T10:46:55;5.57;;;1.97;;
20458;SDS011;10388;52.314;7.938;2023-08-07T10:49:30;4.50;;;2.13;;
20458;SDS011;10388;52.314;7.938;2023-08-07T10:52:12;5.43;;;2.47;;
20458;SDS011;10388;52.314;7.938;2023-08-07T10:54:45;3.60;;;1.97;;
20458;SDS011;10388;52.314;7.938;2023-08-07T10:57:18;5.00;;;2.40;;
20458;SDS011;10388;52.314;7.938;2023-08-07T11:02:28;5.07;;;2.20;;
20458;SDS011;10388;52.314;7.938;2023-08-07T11:05:00;4.03;;;2.50;;
20458;SDS011;10388;52.314;7.938;2023-08-07T11:07:31;5.97;;;2.40;;
20458;SDS011;10388;52.314;7.938;2023-08-07T11:10:01;5.17;;;2.30;;
20458;SDS011;10388;52.314;7.938;2023-08-07T11:12:32;3.70;;;2.10;;
20458;SDS011;10388;52.314;7.938;2023-08-07T11:15:03;5.27;;;2.27;;
20458;SDS011;10388;52.314;7.938;2023-08-07T11:17:33;5.47;;;1.90;;
20458;SDS011;10388;52.314;7.938;2023-08-07T11:20:04;3.57;;;2.07;;
20458;SDS011;10388;52.314;7.938;2023-08-07T11:22:36;3.50;;;1.70;;
20458;SDS011;10388;52.314;7.938;2023-08-07T11:25:07;4.37;;;2.20;;
20458;SDS011;10388;52.314;7.938;2023-08-07T11:27:42;6.17;;;2.27;;
20458;SDS011;10388;52.314;7.938;2023-08-07T11:30:13;7.97;;;2.20;;
20458;SDS011;10388;52.314;7.938;2023-08-07T11:32:44;4.57;;;2.00;;
20458;SDS011;10388;52.314;7.938;2023-08-07T11:35:14;5.23;;;2.03;;
20458;SDS011;10388;52.314;7.938;2023-08-07T11:37:46;4.50;;;1.70;;
20458;SDS011;10388;52.314;7.938;2023-08-07T11:40:17;4.63;;;2.20;;
20458;SDS011;10388;52.314;7.938;2023-08-07T11:42:48;3.23;;;1.50;;
20458;SDS011;10388;52.314;7.938;2023-08-07T11:45:18;5.13;;;2.20;;
20458;SDS011;10388;52.314;7.938;2023-08-07T11:47:49;5.10;;;2.20;;
20458;SDS011;10388;52.314;7.938;2023-08-07T11:50:19;3.17;;;1.70;;
20458;SDS011;10388;52.314;7.938;2023-08-07T11:52:51;4.17;;;2.00;;
20458;SDS011;10388;52.314;7.938;2023-08-07T11:55:22;3.27;;;1.80;;
20458;SDS011;10388;52.314;7.938;2023-08-07T11:57:53;4.43;;;2.13;;
20458;SDS011;10388;52.314;7.938;2023-08-07T12:00:24;3.43;;;1.73;;
20458;SDS011;10388;52.314;7.938;2023-08-07T12:02:57;3.07;;;1.57;;
20458;SDS011;10388;52.314;7.938;2023-08-07T12:05:28;5.13;;;2.10;;
20458;SDS011;10388;52.314;7.938;2023-08-07T12:08:08;3.60;;;1.90;;
20458;SDS011;10388;52.314;7.938;2023-08-07T12:10:39;3.40;;;1.63;;
20458;SDS011;10388;52.314;7.938;2023-08-07T12:13:12;4.77;;;1.87;;
20458;SDS011;10388;52.314;7.938;2023-08-07T12:15:43;4.63;;;1.97;;
20458;SDS011;10388;52.314;7.938;2023-08-07T12:18:13;4.33;;;1.77;;
20458;SDS011;10388;52.314;7.938;2023-08-07T12:20:45;3.87;;;1.93;;
20458;SDS011;10388;52.314;7.938;2023-08-07T12:23:15;3.67;;;2.30;;
20458;SDS011;10388;52.314;7.938;2023-08-07T12:25:46;3.93;;;1.70;;
20458;SDS011;10388;52.314;7.938;2023-08-07T12:28:17;3.97;;;1.73;;
20458;SDS011;10388;52.314;7.938;2023-08-07T12:30:48;3.97;;;1.90;;
20458;SDS011;10388;52.314;7.938;2023-08-07T12:33:20;3.77;;;1.70;;
20458;SDS011;10388;52.314;7.938;2023-08-07T12:35:50;2.57;;;1.63;;
20458;SDS011;10388;52.314;7.938;2023-08-07T12:38:23;4.77;;;1.90;;
20458;SDS011;10388;52.314;7.938;2023-08-07T12:40:54;3.23;;;1.50;;
20458;SDS011;10388;52.314;7.938;2023-08-07T12:43:25;5.77;;;1.53;;
20458;SDS011;10388;52.314;7.938;2023-08-07T12:45:56;4.70;;;1.97;;
20458;SDS011;10388;52.314;7.938;2023-08-07T12:48:26;9.40;;;1.97;;
20458;SDS011;10388;52.314;7.938;2023-08-07T12:50:58;3.53;;;1.60;;
20458;SDS011;10388;52.314;7.938;2023-08-07T12:53:28;5.20;;;1.87;;
20458;SDS011;10388;52.314;7.938;2023-08-07T12:55:59;4.33;;;1.70;;
20458;SDS011;10388;52.314;7.938;2023-08-07T12:58:29;4.43;;;1.60;;
20458;SDS011;10388;52.314;7.938;2023-08-07T13:01:00;2.93;;;1.50;;
20458;SDS011;10388;52.314;7.938;2023-08-07T13:03:31;3.47;;;1.57;;
20458;SDS011;10388;52.314;7.938;2023-08-07T13:06:01;3.93;;;1.90;;
20458;SDS011;10388;52.314;7.938;2023-08-07T13:08:35;3.00;;;1.40;;
20458;SDS011;10388;52.314;7.938;2023-08-07T13:11:05;2.30;;;1.50;;
20458;SDS011;10388;52.314;7.938;2023-08-07T13:13:36;3.73;;;1.63;;
20458;SDS011;10388;52.314;7.938;2023-08-07T13:16:08;3.30;;;1.60;;
20458;SDS011;10388;52.314;7.938;2023-08-07T13:18:38;3.23;;;1.37;;
20458;SDS011;10388;52.314;7.938;2023-08-07T13:21:09;2.90;;;1.50;;
20458;SDS011;10388;52.314;7.938;2023-08-07T13:23:39;8.40;;;1.80;;
20458;SDS011;10388;52.314;7.938;2023-08-07T13:26:10;5.67;;;1.77;;
20458;SDS011;10388;52.314;7.938;2023-08-07T13:28:40;3.40;;;1.60;;
20458;SDS011;10388;52.314;7.938;2023-08-07T13:31:11;4.20;;;1.77;;
20458;SDS011;10388;52.314;7.938;2023-08-07T13:33:41;4.97;;;1.90;;
20458;SDS011;10388;52.314;7.938;2023-08-07T13:36:12;3.50;;;1.60;;
20458;SDS011;10388;52.314;7.938;2023-08-07T13:38:42;2.80;;;1.37;;
20458;SDS011;10388;52.314;7.938;2023-08-07T13:41:13;2.53;;;1.57;;
20458;SDS011;10388;52.314;7.938;2023-08-07T13:43:43;3.63;;;1.77;;
20458;SDS011;10388;52.314;7.938;2023-08-07T13:46:14;3.10;;;1.60;;
20458;SDS011;10388;52.314;7.938;2023-08-07T13:48:45;5.00;;;1.70;;
20458;SDS011;10388;52.314;7.938;2023-08-07T13:51:15;4.70;;;2.10;;
20458;SDS011;10388;52.314;7.938;2023-08-07T13:53:46;4.77;;;1.57;;
20458;SDS011;10388;52.314;7.938;2023-08-07T13:56:16;2.90;;;1.60;;
20458;SDS011;10388;52.314;7.938;2023-08-07T13:58:47;2.87;;;1.50;;
20458;SDS011;10388;52.314;7.938;2023-08-07T14:01:17;2.63;;;1.40;;
20458;SDS011;10388;52.314;7.938;2023-08-07T14:03:48;3.30;;;1.20;;
20458;SDS011;10388;52.314;7.938;2023-08-07T14:06:19;4.47;;;1.70;;
20458;SDS011;10388;52.314;7.938;2023-08-07T14:08:49;3.30;;;1.50;;
20458;SDS011;10388;52.314;7.938;2023-08-07T14:11:20;2.93;;;1.40;;
20458;SDS011;10388;52.314;7.938;2023-08-07T14:13:51;4.83;;;1.40;;
20458;SDS011;10388;52.314;7.938;2023-08-07T14:16:21;3.67;;;1.57;;
20458;SDS011;10388;52.314;7.938;2023-08-07T14:18:52;5.17;;;1.80;;
20458;SDS011;10388;52.314;7.938;2023-08-07T14:21:22;3.33;;;1.77;;
20458;SDS011;10388;52.314;7.938;2023-08-07T14:23:53;4.43;;;1.60;;
20458;SDS011;10388;52.314;7.938;2023-08-07T14:26:24;2.17;;;1.30;;
20458;SDS011;10388;52.314;7.938;2023-08-07T14:28:54;2.63;;;1.60;;
20458;SDS011;10388;52.314;7.938;2023-08-07T14:31:25;2.80;;;1.53;;
20458;SDS011;10388;52.314;7.938;2023-08-07T14:33:56;4.17;;;1.50;;
20458;SDS011;10388;52.314;7.938;2023-08-07T14:36:26;2.97;;;1.67;;
20458;SDS011;10388;52.314;7.938;2023-08-07T14:38:57;3.00;;;1.60;;
20458;SDS011;10388;52.314;7.938;2023-08-07T14:41:27;3.50;;;1.57;;
20458;SDS011;10388;52.314;7.938;2023-08-07T14:43:58;3.93;;;1.67;;
20458;SDS011;10388;52.314;7.938;2023-08-07T14:46:28;2.50;;;1.37;;
20458;SDS011;10388;52.314;7.938;2023-08-07T14:48:59;3.80;;;1.60;;
20458;SDS011;10388;52.314;7.938;2023-08-07T14:51:29;4.13;;;2.00;;
20458;SDS011;10388;52.314;7.938;2023-08-07T14:54:00;4.07;;;2.07;;
20458;SDS011;10388;52.314;7.938;2023-08-07T14:56:30;1.97;;;1.67;;
20458;SDS011;10388;52.314;7.938;2023-08-07T14:59:01;3.83;;;2.00;;
20458;SDS011;10388;52.314;7.938;2023-08-07T15:01:31;3.80;;;1.57;;
20458;SDS011;10388;52.314;7.938;2023-08-07T15:04:02;2.63;;;1.80;;
20458;SDS011;10388;52.314;7.938;2023-08-07T15:06:33;3.73;;;1.60;;
20458;SDS011;10388;52.314;7.938;2023-08-07T15:09:03;4.70;;;1.93;;
20458;SDS011;10388;52.314;7.938;2023-08-07T15:11:34;4.13;;;2.00;;
20458;SDS011;10388;52.314;7.938;2023-08-07T15:14:05;3.47;;;1.80;;
20458;SDS011;10388;52.314;7.938;2023-08-07T15:16:35;5.80;;;1.90;;
20458;SDS011;10388;52.314;7.938;2023-08-07T15:19:07;7.23;;;1.90;;
20458;SDS011;10388;52.314;7.938;2023-08-07T15:21:37;7.00;;;2.37;;
20458;SDS011;10388;52.314;7.938;2023-08-07T15:24:08;10.60;;;2.27;;
20458;SDS011;10388;52.314;7.938;2023-08-07T15:26:38;7.83;;;2.43;;
20458;SDS011;10388;52.314;7.938;2023-08-07T15:29:09;4.67;;;1.97;;
20458;SDS011;10388;52.314;7.938;2023-08-07T15:31:39;2.83;;;1.77;;
20458;SDS011;10388;52.314;7.938;2023-08-07T15:34:10;3.97;;;1.90;;
20458;SDS011;10388;52.314;7.938;2023-08-07T15:36:40;3.17;;;1.77;;
20458;SDS011;10388;52.314;7.938;2023-08-07T15:39:11;2.90;;;1.70;;
20458;SDS011;10388;52.314;7.938;2023-08-07T15:41:42;3.53;;;1.93;;
20458;SDS011;10388;52.314;7.938;2023-08-07T15:44:13;3.00;;;2.10;;
20458;SDS011;10388;52.314;7.938;2023-08-07T15:46:44;4.50;;;1.80;;
20458;SDS011;10388;52.314;7.938;2023-08-07T15:49:15;2.67;;;1.63;;
20458;SDS011;10388;52.314;7.938;2023-08-07T15:51:45;3.80;;;1.83;;
20458;SDS011;10388;52.314;7.938;2023-08-07T15:54:16;4.80;;;1.67;;
20458;SDS011;10388;52.314;7.938;2023-08-07T15:56:46;7.30;;;2.10;;
20458;SDS011;10388;52.314;7.938;2023-08-07T15:59:17;2.87;;;1.60;;
20458;SDS011;10388;52.314;7.938;2023-08-07T16:01:47;2.50;;;1.97;;
20458;SDS011;10388;52.314;7.938;2023-08-07T16:04:18;2.87;;;1.80;;
20458;SDS011;10388;52.314;7.938;2023-08-07T16:06:48;4.00;;;1.70;;
20458;SDS011;10388;52.314;7.938;2023-08-07T16:09:19;3.87;;;1.87;;
20458;SDS011;10388;52.314;7.938;2023-08-07T16:11:49;2.00;;;1.70;;
20458;SDS011;10388;52.314;7.938;2023-08-07T16:14:20;3.93;;;1.77;;
20458;SDS011;10388;52.314;7.938;2023-08-07T16:16:53;3.00;;;2.00;;
20458;SDS011;10388;52.314;7.938;2023-08-07T16:19:23;3.37;;;1.80;;
20458;SDS011;10388;52.314;7.938;2023-08-07T16:21:54;2.27;;;1.80;;
20458;SDS011;10388;52.314;7.938;2023-08-07T16:24:24;5.60;;;2.20;;
20458;SDS011;10388;52.314;7.938;2023-08-07T16:26:55;4.87;;;1.80;;
20458;SDS011;10388;52.314;7.938;2023-08-07T16:29:25;3.07;;;1.87;;
20458;SDS011;10388;52.314;7.938;2023-08-07T16:31:56;4.10;;;1.70;;
20458;SDS011;10388;52.314;7.938;2023-08-07T16:34:27;4.17;;;2.10;;
20458;SDS011;10388;52.314;7.938;2023-08-07T16:36:57;4.40;;;2.00;;
20458;SDS011;10388;52.314;7.938;2023-08-07T16:39:28;5.03;;;2.00;;
20458;SDS011;10388;52.314;7.938;2023-08-07T16:41:59;5.50;;;1.93;;
20458;SDS011;10388;52.314;7.938;2023-08-07T16:44:29;3.90;;;2.00;;
20458;SDS011;10388;52.314;7.938;2023-08-07T16:47:00;3.73;;;1.90;;
20458;SDS011;10388;52.314;7.938;2023-08-07T16:49:30;5.30;;;2.03;;
20458;SDS011;10388;52.314;7.938;2023-08-07T16:52:01;7.50;;;1.70;;
20458;SDS011;10388;52.314;7.938;2023-08-07T16:54:34;2.57;;;1.90;;
20458;SDS011;10388;52.314;7.938;2023-08-07T16:57:04;4.63;;;1.90;;
20458;SDS011;10388;52.314;7.938;2023-08-07T16:59:35;3.50;;;1.93;;
20458;SDS011;10388;52.314;7.938;2023-08-07T17:02:06;3.87;;;2.60;;
20458;SDS011;10388;52.314;7.938;2023-08-07T17:04:36;3.70;;;2.10;;
20458;SDS011;10388;52.314;7.938;2023-08-07T17:07:08;4.53;;;2.30;;
20458;SDS011;10388;52.314;7.938;2023-08-07T17:09:39;4.70;;;1.77;;
20458;SDS011;10388;52.314;7.938;2023-08-07T17:12:09;6.73;;;2.13;;
20458;SDS011;10388;52.314;7.938;2023-08-07T17:14:41;3.60;;;1.97;;
20458;SDS011;10388;52.314;7.938;2023-08-07T17:17:12;2.50;;;1.93;;
20458;SDS011;10388;52.314;7.938;2023-08-07T17:19:42;3.03;;;1.80;;
20458;SDS011;10388;52.314;7.938;2023-08-07T17:22:13;2.17;;;1.70;;
20458;SDS011;10388;52.314;7.938;2023-08-07T17:24:43;5.23;;;1.67;;
20458;SDS011;10388;52.314;7.938;2023-08-07T17:27:14;3.47;;;1.90;;
20458;SDS011;10388;52.314;7.938;2023-08-07T17:29:44;2.90;;;1.90;;
20458;SDS011;10388;52.314;7.938;2023-08-07T17:32:15;4.93;;;2.00;;
20458;SDS011;10388;52.314;7.938;2023-08-07T17:34:45;3.93;;;1.80;;
20458;SDS011;10388;52.314;7.938;2023-08-07T17:37:16;4.00;;;1.73;;
20458;SDS011;10388;52.314;7.938;2023-08-07T17:39:47;2.30;;;1.80;;
20458;SDS011;10388;52.314;7.938;2023-08-07T17:42:17;2.43;;;1.70;;
20458;SDS011;10388;52.314;7.938;2023-08-07T17:44:48;4.37;;;2.00;;
20458;SDS011;10388;52.314;7.938;2023-08-07T17:47:20;4.23;;;1.67;;
20458;SDS011;10388;52.314;7.938;2023-08-07T17:49:50;3.43;;;1.93;;
20458;SDS011;10388;52.314;7.938;2023-08-07T17:52:21;3.40;;;1.83;;
20458;SDS011;10388;52.314;7.938;2023-08-07T17:54:51;3.43;;;1.70;;
20458;SDS011;10388;52.314;7.938;2023-08-07T17:57:22;4.20;;;1.90;;
20458;SDS011;10388;52.314;7.938;2023-08-07T17:59:52;4.23;;;2.20;;
20458;SDS011;10388;52.314;7.938;2023-08-07T18:02:23;2.13;;;1.80;;
20458;SDS011;10388;52.314;7.938;2023-08-07T18:04:54;2.63;;;1.90;;
20458;SDS011;10388;52.314;7.938;2023-08-07T18:07:25;3.23;;;1.80;;
20458;SDS011;10388;52.314;7.938;2023-08-07T18:09:55;5.40;;;2.00;;
20458;SDS011;10388;52.314;7.938;2023-08-07T18:12:26;3.20;;;1.80;;
20458;SDS011;10388;52.314;7.938;2023-08-07T18:14:57;3.20;;;1.63;;
20458;SDS011;10388;52.314;7.938;2023-08-07T18:17:28;2.37;;;1.70;;
20458;SDS011;10388;52.314;7.938;2023-08-07T18:20:00;4.60;;;2.13;;
20458;SDS011;10388;52.314;7.938;2023-08-07T18:22:30;2.40;;;1.73;;
20458;SDS011;10388;52.314;7.938;2023-08-07T18:25:02;4.70;;;2.03;;
20458;SDS011;10388;52.314;7.938;2023-08-07T18:27:32;6.17;;;2.10;;
20458;SDS011;10388;52.314;7.938;2023-08-07T18:30:03;3.00;;;1.60;;
20458;SDS011;10388;52.314;7.938;2023-08-07T18:32:34;4.30;;;1.60;;
20458;SDS011;10388;52.314;7.938;2023-08-07T18:35:07;3.73;;;1.80;;
20458;SDS011;10388;52.314;7.938;2023-08-07T18:37:39;3.60;;;1.90;;
20458;SDS011;10388;52.314;7.938;2023-08-07T18:40:09;3.23;;;1.70;;